Time;durP1;ratioP1;P1;durP2;ratioP2;P2;SDS_P1;SDS_P2;PMS_P1;PMS_P2;Temp;Humidity;BMP_temperature;BMP_pressure;BME280_temperature;BME280_humidity;BME280_pressure;Samples;Min_cycle;Max_cycle;Signal;HPM_P1;HPM_P2
2022/07/29 00:00:22;;;;;;;16.02;10.38;;;25.30;99.90;;;;;;4888751;29;20083;-91
2022/07/29 00:02:49;;;;;;;12.35;9.55;;;25.20;99.90;;;;;;4904593;29;20123;-92
2022/07/29 00:05:15;;;;;;;15.63;9.50;;;25.10;99.90;;;;;;4888968;29;20032;-92
2022/07/29 00:07:42;;;;;;;18.05;10.48;;;25.10;99.90;;;;;;4889238;29;20055;-91
2022/07/29 00:10:08;;;;;;;11.80;10.00;;;25.10;99.90;;;;;;4889154;29;20514;-91
2022/07/29 00:12:35;;;;;;;15.57;10.77;;;25.00;99.90;;;;;;4888639;29;20406;-91
2022/07/29 00:15:03;;;;;;;16.02;10.32;;;25.00;99.90;;;;;;4888812;29;20500;-92
2022/07/29 00:17:29;;;;;;;15.18;10.23;;;25.00;99.90;;;;;;4904339;29;20039;-92
2022/07/29 00:19:56;;;;;;;12.25;9.85;;;25.10;99.90;;;;;;4888790;29;20032;-92
2022/07/29 00:22:22;;;;;;;14.65;10.55;;;25.10;99.90;;;;;;4888854;29;20064;-93
2022/07/29 00:24:49;;;;;;;11.15;9.10;;;25.10;99.90;;;;;;4888671;29;20072;-92
2022/07/29 00:27:17;;;;;;;15.90;10.23;;;25.10;99.90;;;;;;4888099;29;20036;-91
2022/07/29 00:29:44;;;;;;;11.43;9.73;;;25.10;99.90;;;;;;4888309;29;20105;-91
2022/07/29 00:32:14;;;;;;;18.10;10.70;;;25.10;99.90;;;;;;4888610;29;20505;-92
2022/07/29 00:37:28;;;;;;;12.48;10.10;;;25.00;99.90;;;;;;4914293;29;20024;-91
2022/07/29 00:39:55;;;;;;;14.30;9.93;;;25.00;99.90;;;;;;4888133;29;20028;-91
2022/07/29 00:42:21;;;;;;;13.13;10.00;;;24.90;99.90;;;;;;4893461;29;20473;-92
2022/07/29 00:44:48;;;;;;;16.83;11.15;;;24.90;99.90;;;;;;4893113;29;20036;-93
2022/07/29 00:47:15;;;;;;;15.40;10.50;;;24.90;99.90;;;;;;4888199;29;20111;-92
2022/07/29 00:49:43;;;;;;;12.82;9.93;;;24.90;99.90;;;;;;4887950;29;20032;-91
2022/07/29 00:52:11;;;;;;;16.27;10.75;;;24.90;99.90;;;;;;4887923;29;20042;-91
2022/07/29 00:54:40;;;;;;;16.70;10.85;;;24.90;99.90;;;;;;4887794;29;20036;-92
2022/07/29 00:57:08;;;;;;;12.20;9.77;;;25.00;99.90;;;;;;4909031;29;20032;-91
2022/07/29 00:59:35;;;;;;;15.13;9.57;;;25.00;99.90;;;;;;4919448;29;20062;-92
2022/07/29 01:02:05;;;;;;;13.88;10.38;;;25.00;99.90;;;;;;4919480;29;20122;-90
2022/07/29 01:04:32;;;;;;;13.32;10.32;;;25.10;99.90;;;;;;4894030;29;20886;-90
2022/07/29 01:07:01;;;;;;;11.48;9.40;;;25.10;99.90;;;;;;4922225;29;20091;-92
2022/07/29 01:09:36;;;;;;;12.88;9.20;;;25.10;99.90;;;;;;4906443;29;20055;-91
2022/07/29 01:12:04;;;;;;;12.75;9.60;;;25.10;99.90;;;;;;4911484;29;20182;-90
2022/07/29 01:14:31;;;;;;;13.38;10.18;;;25.00;99.90;;;;;;4902894;29;20080;-91
2022/07/29 01:17:11;;;;;;;13.38;9.73;;;25.00;99.90;;;;;;4894779;29;20118;-90
2022/07/29 01:20:19;;;;;;;12.68;9.52;;;25.00;99.90;;;;;;4906314;29;20047;-91
2022/07/29 01:23:11;;;;;;;13.30;9.07;;;24.90;99.90;;;;;;4851561;29;20036;-91
2022/07/29 01:26:02;;;;;;;12.23;9.52;;;24.90;99.90;;;;;;4872981;29;20036;-90
2022/07/29 01:28:48;;;;;;;14.68;10.30;;;24.90;99.90;;;;;;4906146;29;20421;-90
2022/07/29 01:31:32;;;;;;;13.05;10.07;;;24.90;99.90;;;;;;4914827;29;20065;-91
2022/07/29 01:34:04;;;;;;;12.27;9.95;;;24.90;99.90;;;;;;4902603;29;20040;-91
2022/07/29 01:36:43;;;;;;;14.52;9.70;;;24.90;99.90;;;;;;4887486;29;20029;-91
2022/07/29 01:39:21;;;;;;;13.75;10.32;;;24.90;99.90;;;;;;4887095;29;20040;-91
2022/07/29 01:42:17;;;;;;;17.00;10.65;;;24.80;99.90;;;;;;4906012;29;20031;-91
2022/07/29 01:45:18;;;;;;;14.77;12.23;;;24.80;99.90;;;;;;4921546;29;20046;-92
2022/07/29 01:47:56;;;;;;;15.00;10.95;;;24.80;99.90;;;;;;4881475;29;20172;-92
2022/07/29 01:50:38;;;;;;;12.85;10.63;;;24.80;99.90;;;;;;4915434;29;20489;-91
2022/07/29 01:53:10;;;;;;;13.85;10.88;;;24.80;99.90;;;;;;4905441;29;20036;-91
2022/07/29 01:55:44;;;;;;;13.55;10.65;;;24.80;99.90;;;;;;4905851;29;20036;-91
2022/07/29 01:58:13;;;;;;;15.88;10.25;;;24.80;99.90;;;;;;4883817;29;20066;-91
2022/07/29 02:00:43;;;;;;;17.92;11.40;;;24.70;99.90;;;;;;4872573;29;20095;-91
2022/07/29 02:03:12;;;;;;;17.15;11.90;;;24.80;99.90;;;;;;4870211;29;20033;-91
2022/07/29 02:05:42;;;;;;;16.50;11.57;;;24.80;99.90;;;;;;4902590;29;20030;-90
2022/07/29 02:08:11;;;;;;;14.57;10.65;;;24.80;99.90;;;;;;4916663;29;20052;-91
2022/07/29 02:10:40;;;;;;;17.58;11.85;;;24.70;99.90;;;;;;4892890;29;20030;-91
2022/07/29 02:13:09;;;;;;;11.85;10.52;;;24.70;99.90;;;;;;4886575;29;20050;-90
2022/07/29 02:15:37;;;;;;;15.55;11.50;;;24.70;99.90;;;;;;4895273;29;20035;-91
2022/07/29 02:18:19;;;;;;;14.35;11.15;;;24.80;99.90;;;;;;4905244;29;20497;-90
2022/07/29 02:20:49;;;;;;;15.93;11.98;;;24.80;99.90;;;;;;4921091;29;20042;-91
2022/07/29 02:23:19;;;;;;;15.85;11.27;;;24.70;99.90;;;;;;4905217;29;20038;-91
2022/07/29 02:25:51;;;;;;;20.38;12.45;;;24.70;99.90;;;;;;4905156;29;20031;-92
2022/07/29 02:28:19;;;;;;;17.13;12.77;;;24.70;99.90;;;;;;4898296;29;20168;-91
2022/07/29 02:30:47;;;;;;;17.50;12.32;;;24.70;99.90;;;;;;4882158;29;20033;-91
2022/07/29 02:33:17;;;;;;;16.15;12.40;;;24.70;99.90;;;;;;4879188;29;20037;-90
2022/07/29 02:35:46;;;;;;;18.25;12.90;;;24.70;99.90;;;;;;4879242;29;20115;-92
2022/07/29 02:41:05;;;;;;;17.88;12.18;;;24.70;99.90;;;;;;4879085;29;20615;-91
2022/07/29 02:43:34;;;;;;;18.83;13.27;;;24.70;99.90;;;;;;4895852;29;20040;-91
2022/07/29 02:46:12;;;;;;;20.15;13.48;;;24.70;99.90;;;;;;4884927;29;20037;-91
2022/07/29 02:49:02;;;;;;;14.70;12.30;;;24.80;99.90;;;;;;4880031;29;20056;-91
2022/07/29 02:51:41;;;;;;;15.30;12.25;;;24.70;99.90;;;;;;4845121;29;20066;-91
2022/07/29 02:54:10;;;;;;;17.10;12.18;;;24.70;99.90;;;;;;4860463;29;20545;-91
2022/07/29 02:56:42;;;;;;;18.38;12.50;;;24.80;99.90;;;;;;4860425;29;20040;-92
2022/07/29 02:59:11;;;;;;;16.00;13.43;;;24.70;99.90;;;;;;4886489;29;20414;-91
2022/07/29 03:01:43;;;;;;;19.85;12.90;;;24.70;99.90;;;;;;4881390;29;20490;-90
2022/07/29 03:04:13;;;;;;;16.42;13.02;;;24.70;99.90;;;;;;4888815;29;20032;-90
2022/07/29 03:06:41;;;;;;;16.60;12.88;;;24.70;99.90;;;;;;4901832;29;20466;-90
2022/07/29 03:09:12;;;;;;;17.08;11.90;;;24.80;99.90;;;;;;4885452;29;20031;-90
2022/07/29 03:11:40;;;;;;;15.43;13.10;;;24.80;99.90;;;;;;4887818;29;20383;-90
2022/07/29 03:14:07;;;;;;;16.08;13.18;;;24.70;99.90;;;;;;4904181;29;20095;-90
2022/07/29 03:16:36;;;;;;;17.70;13.10;;;24.70;99.90;;;;;;4920043;29;20032;-91
2022/07/29 03:19:05;;;;;;;17.90;12.85;;;24.70;99.90;;;;;;4904184;29;20058;-90
2022/07/29 03:21:34;;;;;;;17.55;12.38;;;24.70;99.90;;;;;;4902193;29;20034;-93
2022/07/29 03:24:01;;;;;;;22.02;13.38;;;24.70;99.90;;;;;;4920152;29;20035;-92
2022/07/29 03:26:27;;;;;;;19.40;12.70;;;24.70;99.90;;;;;;4907850;29;20028;-91
2022/07/29 03:28:54;;;;;;;22.85;13.65;;;24.70;99.90;;;;;;4910627;29;20035;-89
2022/07/29 03:31:24;;;;;;;19.73;14.18;;;24.70;99.90;;;;;;4910580;29;20023;-91
2022/07/29 03:33:54;;;;;;;21.33;13.85;;;24.70;99.90;;;;;;4922410;29;20043;-90
2022/07/29 03:36:27;;;;;;;20.02;13.77;;;24.70;99.90;;;;;;4907154;29;20036;-90
2022/07/29 03:38:54;;;;;;;18.20;13.25;;;24.60;99.90;;;;;;4911464;29;20035;-91
2022/07/29 03:41:24;;;;;;;17.60;13.07;;;24.70;99.90;;;;;;4910342;29;20035;-91
2022/07/29 03:43:53;;;;;;;18.83;12.85;;;24.70;99.90;;;;;;4873257;29;20514;-91
2022/07/29 03:46:23;;;;;;;17.42;11.82;;;24.70;99.90;;;;;;4872799;29;20033;-91
2022/07/29 03:48:56;;;;;;;16.20;11.43;;;24.70;99.90;;;;;;4910260;29;20067;-90
2022/07/29 03:51:22;;;;;;;17.00;12.50;;;24.70;99.90;;;;;;4910540;29;20087;-91
2022/07/29 03:53:49;;;;;;;17.10;12.57;;;24.70;99.90;;;;;;4905623;29;20070;-91
2022/07/29 03:56:21;;;;;;;16.98;11.18;;;24.70;99.90;;;;;;4925953;29;20032;-92
2022/07/29 03:58:51;;;;;;;16.67;12.40;;;24.70;99.90;;;;;;4891451;29;20167;-91
2022/07/29 04:01:18;;;;;;;16.42;12.10;;;24.70;99.90;;;;;;4893396;29;20032;-91
2022/07/29 04:03:45;;;;;;;15.75;12.05;;;24.80;99.90;;;;;;4920262;29;20031;-91
2022/07/29 04:06:12;;;;;;;17.88;11.30;;;24.80;99.90;;;;;;4897760;29;20034;-91
2022/07/29 04:08:39;;;;;;;18.80;11.07;;;24.80;99.90;;;;;;4907635;29;20031;-91
2022/07/29 04:11:06;;;;;;;18.85;11.52;;;24.80;99.90;;;;;;4910130;29;20032;-91
2022/07/29 04:13:34;;;;;;;17.02;11.40;;;24.90;99.90;;;;;;4910074;29;20059;-92
2022/07/29 04:16:03;;;;;;;18.40;10.82;;;24.90;99.90;;;;;;4897319;29;20035;-93
2022/07/29 04:18:33;;;;;;;20.75;11.00;;;24.90;99.90;;;;;;4891367;29;20039;-91
2022/07/29 04:21:00;;;;;;;16.60;10.88;;;24.90;99.90;;;;;;4906992;29;20107;-91
2022/07/29 04:23:32;;;;;;;19.33;10.68;;;24.90;99.90;;;;;;4892062;29;20024;-92
2022/07/29 04:26:00;;;;;;;24.20;11.43;;;24.90;99.90;;;;;;4891371;29;20028;-93
2022/07/29 04:28:27;;;;;;;17.77;10.18;;;24.90;99.90;;;;;;4894394;29;20036;-92
2022/07/29 04:30:57;;;;;;;16.30;10.43;;;24.90;99.90;;;;;;4891211;29;20439;-92
2022/07/29 04:33:26;;;;;;;14.50;10.40;;;25.00;99.90;;;;;;4891078;29;20091;-93
2022/07/29 04:35:53;;;;;;;16.67;11.23;;;25.00;99.90;;;;;;4900201;29;20032;-92
2022/07/29 04:38:19;;;;;;;15.27;10.52;;;25.10;99.90;;;;;;4907212;29;20028;-92
2022/07/29 04:40:46;;;;;;;19.23;10.70;;;25.10;99.90;;;;;;4907007;29;20032;-92
2022/07/29 04:43:12;;;;;;;14.80;10.68;;;25.10;99.90;;;;;;4907093;29;20030;-92
2022/07/29 04:45:39;;;;;;;15.48;9.52;;;25.20;99.90;;;;;;4906953;29;20028;-92
2022/07/29 04:48:09;;;;;;;10.35;8.40;;;25.50;99.90;;;;;;4907461;29;20031;-92
2022/07/29 04:50:39;;;;;;;13.68;8.90;;;26.00;99.90;;;;;;4922416;29;20504;-93
2022/07/29 04:53:09;;;;;;;11.80;8.52;;;27.20;99.90;;;;;;4922313;29;20038;-92
2022/07/29 04:55:50;;;;;;;12.90;8.15;;;28.60;99.90;;;;;;4911379;29;20114;-91
2022/07/29 04:58:26;;;;;;;11.50;7.32;;;29.60;99.90;;;;;;4911990;29;20036;-93
2022/07/29 05:00:58;;;;;;;10.02;7.43;;;30.80;99.90;;;;;;4893907;29;20052;-93
2022/07/29 05:03:27;;;;;;;9.00;6.20;;;31.20;99.90;;;;;;4904406;29;20036;-93
2022/07/29 05:05:54;;;;;;;9.07;7.43;;;31.80;99.90;;;;;;4894318;29;20045;-93
2022/07/29 05:08:20;;;;;;;7.60;6.80;;;32.00;99.90;;;;;;4890041;29;20032;-93
2022/07/29 05:10:47;;;;;;;11.55;6.93;;;32.70;99.90;;;;;;4890508;29;20024;-92
2022/07/29 05:13:13;;;;;;;9.77;6.72;;;32.00;99.90;;;;;;4893576;29;20051;-93
2022/07/29 05:15:40;;;;;;;9.30;6.30;;;32.10;99.90;;;;;;4924864;29;20056;-93
2022/07/29 05:18:06;;;;;;;9.20;6.13;;;32.10;99.90;;;;;;4925290;29;20127;-93
2022/07/29 05:20:34;;;;;;;8.55;6.57;;;33.00;99.90;;;;;;4908049;29;20404;-93
2022/07/29 05:23:02;;;;;;;11.32;6.38;;;33.20;99.90;;;;;;4908205;29;20067;-92
2022/07/29 05:25:29;;;;;;;9.65;6.57;;;33.10;99.90;;;;;;4870980;29;20080;-92
2022/07/29 05:27:57;;;;;;;11.15;6.25;;;33.00;99.90;;;;;;4897217;29;20067;-93
2022/07/29 05:30:24;;;;;;;7.35;5.60;;;32.80;99.90;;;;;;4890466;29;20035;-92
2022/07/29 05:32:51;;;;;;;8.68;5.60;;;32.50;99.90;;;;;;4889308;29;20055;-92
2022/07/29 05:35:18;;;;;;;6.28;4.93;;;32.70;99.90;;;;;;4890985;29;20119;-92
2022/07/29 05:37:44;;;;;;;9.35;5.38;;;32.80;99.90;;;;;;4907684;29;20035;-92
2022/07/29 05:40:11;;;;;;;7.15;5.68;;;33.60;99.90;;;;;;4895939;29;20038;-93
2022/07/29 05:42:38;;;;;;;7.32;5.10;;;33.70;99.90;;;;;;4914404;29;20030;-92
2022/07/29 05:45:05;;;;;;;6.72;5.47;;;33.60;99.90;;;;;;4887504;29;20103;-93
2022/07/29 05:47:32;;;;;;;7.57;5.55;;;33.40;99.90;;;;;;4886961;29;20025;-92
2022/07/29 05:50:14;;;;;;;7.45;5.88;;;33.70;99.90;;;;;;4885855;29;20036;-92
2022/07/29 05:52:40;;;;;;;11.13;5.68;;;33.80;99.90;;;;;;4886857;29;20040;-92
2022/07/29 05:55:08;;;;;;;10.27;5.35;;;33.50;99.90;;;;;;4887139;29;20051;-92
2022/07/29 05:57:37;;;;;;;6.45;5.15;;;33.30;99.90;;;;;;4898878;29;20480;-92
2022/07/29 06:00:04;;;;;;;7.93;5.25;;;33.40;99.90;;;;;;4913261;29;20395;-92
2022/07/29 06:02:38;;;;;;;6.20;5.30;;;33.40;99.90;;;;;;4908433;29;20501;-92
2022/07/29 06:05:05;;;;;;;7.22;5.80;;;33.60;99.90;;;;;;4895728;29;20447;-93
2022/07/29 06:07:32;;;;;;;6.53;5.38;;;33.70;99.90;;;;;;4898780;29;20020;-91
2022/07/29 06:09:59;;;;;;;7.45;5.43;;;34.80;99.90;;;;;;4899016;29;20024;-91
2022/07/29 06:12:25;;;;;;;7.97;5.97;;;34.40;99.90;;;;;;4886477;29;20032;-91
2022/07/29 06:14:51;;;;;;;5.90;5.30;;;34.40;99.90;;;;;;4902161;29;20410;-91
2022/07/29 06:17:18;;;;;;;6.05;5.43;;;33.90;99.90;;;;;;4886542;29;20488;-90
2022/07/29 06:19:44;;;;;;;6.43;5.30;;;33.80;99.90;;;;;;4893411;29;20031;-90
2022/07/29 06:22:11;;;;;;;6.65;5.18;;;33.60;99.90;;;;;;4917011;29;20032;-90
2022/07/29 06:24:41;;;;;;;7.05;6.35;;;33.60;99.90;;;;;;4889854;29;20032;-90
2022/07/29 06:27:09;;;;;;;8.00;7.10;;;34.60;99.90;;;;;;4904350;29;20031;-91
2022/07/29 06:29:36;;;;;;;7.50;6.80;;;34.90;99.90;;;;;;4924506;29;20031;-90
2022/07/29 06:32:03;;;;;;;9.10;6.40;;;34.60;99.90;;;;;;4893514;29;20391;-91
2022/07/29 06:34:30;;;;;;;7.05;6.45;;;34.40;99.90;;;;;;4905658;29;20043;-89
2022/07/29 06:36:57;;;;;;;8.32;7.40;;;33.90;99.90;;;;;;4923019;29;20032;-90
2022/07/29 06:39:23;;;;;;;7.93;6.80;;;34.20;99.90;;;;;;4922817;29;20082;-91
2022/07/29 06:41:50;;;;;;;9.80;8.80;;;34.60;99.90;;;;;;4907449;29;20094;-92
2022/07/29 06:44:18;;;;;;;19.65;10.40;;;34.80;99.90;;;;;;4902129;29;20032;-92
2022/07/29 06:46:44;;;;;;;11.35;10.40;;;35.10;99.90;;;;;;4907056;29;20122;-90
2022/07/29 06:49:12;;;;;;;11.38;10.68;;;35.50;99.90;;;;;;4906286;29;20043;-90
2022/07/29 06:51:39;;;;;;;12.20;11.40;;;35.80;99.90;;;;;;4904110;29;20474;-91
2022/07/29 06:54:08;;;;;;;12.10;11.23;;;35.70;99.90;;;;;;4904650;29;20043;-92
2022/07/29 06:56:37;;;;;;;13.05;11.82;;;35.90;99.90;;;;;;4907936;29;20119;-90
2022/07/29 06:59:05;;;;;;;10.85;9.93;;;36.10;99.90;;;;;;4885789;29;20048;-91
2022/07/29 07:01:32;;;;;;;11.25;10.10;;;35.90;99.90;;;;;;4885289;29;20490;-93
2022/07/29 07:04:01;;;;;;;10.70;9.55;;;36.30;99.90;;;;;;4919114;29;20031;-94
2022/07/29 07:06:28;;;;;;;10.70;9.88;;;36.30;99.90;;;;;;4904273;29;20024;-93
2022/07/29 07:08:54;;;;;;;12.27;11.40;;;36.80;99.90;;;;;;4905907;29;20028;-92
2022/07/29 07:11:24;;;;;;;12.90;11.80;;;36.30;99.90;;;;;;4899145;29;20079;-96
2022/07/29 07:13:51;;;;;;;12.60;11.60;;;36.90;99.90;;;;;;4883974;29;20059;-91
2022/07/29 07:16:20;;;;;;;11.60;10.43;;;36.70;99.90;;;;;;4882594;29;20123;-93
2022/07/29 07:18:46;;;;;;;10.57;9.98;;;36.70;99.90;;;;;;4898520;29;20040;-94
2022/07/29 07:21:16;;;;;;;11.13;10.43;;;36.30;99.90;;;;;;4911354;29;20039;-93
2022/07/29 07:23:46;;;;;;;11.55;10.75;;;36.30;99.90;;;;;;4894512;29;20118;-89
2022/07/29 07:26:15;;;;;;;11.18;10.25;;;36.30;99.90;;;;;;4904146;29;20036;-93
2022/07/29 07:28:41;;;;;;;10.63;9.80;;;36.30;99.90;;;;;;4890898;29;20028;-93
2022/07/29 07:31:09;;;;;;;10.90;10.20;;;36.00;99.90;;;;;;4898907;29;20086;-93
2022/07/29 07:33:35;;;;;;;10.52;9.73;;;35.70;99.90;;;;;;4889278;29;20051;-93
2022/07/29 07:36:02;;;;;;;10.50;9.80;;;35.50;99.90;;;;;;4886392;29;20123;-92
2022/07/29 07:38:28;;;;;;;10.68;9.77;;;35.40;99.90;;;;;;4885445;29;20028;-93
2022/07/29 07:40:55;;;;;;;10.75;10.02;;;35.50;99.90;;;;;;4897727;29;20036;-94
2022/07/29 07:43:23;;;;;;;11.27;10.57;;;35.50;99.90;;;;;;4904857;29;20451;-90
2022/07/29 07:45:53;;;;;;;13.07;11.75;;;35.10;99.90;;;;;;4890191;29;20043;-92
2022/07/29 07:48:23;;;;;;;10.80;9.85;;;35.40;99.90;;;;;;4897444;29;20402;-91
2022/07/29 07:50:50;;;;;;;10.82;10.02;;;35.10;99.90;;;;;;4901538;29;20076;-91
2022/07/29 07:53:16;;;;;;;10.23;9.50;;;34.80;99.90;;;;;;4916542;29;20070;-91
2022/07/29 07:55:44;;;;;;;11.60;10.60;;;34.80;99.90;;;;;;4914958;29;20032;-90
2022/07/29 07:58:10;;;;;;;11.80;10.70;;;35.30;99.90;;;;;;4898093;29;20032;-92
2022/07/29 08:00:37;;;;;;;10.43;9.65;;;35.40;99.90;;;;;;4894042;29;20052;-91
2022/07/29 08:03:03;;;;;;;11.52;10.63;;;35.20;99.90;;;;;;4906646;29;20020;-90
2022/07/29 08:05:30;;;;;;;11.48;10.68;;;35.40;99.90;;;;;;4911346;29;20478;-89
2022/07/29 08:07:56;;;;;;;10.98;10.27;;;35.60;99.90;;;;;;4911751;29;20872;-90
2022/07/29 08:13:08;;;;;;;10.77;9.98;;;35.00;99.90;;;;;;4916546;29;20066;-90
2022/07/29 08:15:35;;;;;;;10.95;10.00;;;35.00;99.90;;;;;;4899768;29;20099;-92
2022/07/29 08:18:02;;;;;;;11.27;10.30;;;34.80;99.90;;;;;;4888494;29;20031;-91
2022/07/29 08:20:29;;;;;;;10.60;9.70;;;35.40;99.90;;;;;;4903023;29;20032;-91
2022/07/29 08:22:59;;;;;;;11.18;10.38;;;35.50;99.90;;;;;;4907239;29;20035;-94
2022/07/29 08:25:30;;;;;;;10.43;9.55;;;35.30;99.90;;;;;;4891782;29;20032;-92
2022/07/29 08:27:59;;;;;;;10.40;9.70;;;35.30;99.90;;;;;;4887052;29;20032;-92
2022/07/29 08:30:25;;;;;;;9.95;9.25;;;35.10;99.90;;;;;;4897213;29;20024;-91
2022/07/29 08:32:52;;;;;;;9.50;8.65;;;35.20;99.90;;;;;;4901018;29;20028;-90
2022/07/29 08:35:23;;;;;;;10.85;10.05;;;35.00;99.90;;;;;;4904080;29;20042;-91
2022/07/29 08:37:50;;;;;;;11.77;10.82;;;34.90;99.90;;;;;;4903388;29;20049;-90
2022/07/29 08:40:16;;;;;;;11.27;10.48;;;35.10;99.90;;;;;;4903164;29;20131;-91
2022/07/29 08:42:44;;;;;;;11.88;11.07;;;35.40;99.90;;;;;;4903771;29;20028;-92
2022/07/29 08:45:10;;;;;;;10.68;9.88;;;35.60;99.90;;;;;;4903946;29;20546;-90
2022/07/29 08:47:39;;;;;;;11.50;10.70;;;35.50;99.90;;;;;;4903869;29;20096;-91
2022/07/29 08:50:07;;;;;;;12.02;11.30;;;35.50;99.90;;;;;;4903713;29;20058;-90
2022/07/29 08:52:37;;;;;;;10.60;9.73;;;35.50;99.90;;;;;;4903742;29;20135;-89
2022/07/29 08:55:05;;;;;;;11.48;10.60;;;35.30;99.90;;;;;;4903551;29;20047;-90
2022/07/29 08:57:34;;;;;;;11.55;10.68;;;35.30;99.90;;;;;;4903561;29;20032;-90
2022/07/29 09:00:03;;;;;;;11.20;10.40;;;35.20;99.90;;;;;;4903129;29;20060;-91
2022/07/29 09:02:36;;;;;;;11.90;11.18;;;35.20;99.90;;;;;;4903478;29;20032;-93
2022/07/29 09:05:05;;;;;;;11.63;10.93;;;35.70;99.90;;;;;;4903229;29;20040;-90
2022/07/29 09:07:32;;;;;;;12.13;11.43;;;36.00;99.90;;;;;;4888107;29;20055;-92
2022/07/29 09:10:00;;;;;;;11.77;10.98;;;35.80;99.90;;;;;;4887824;29;20024;-92
2022/07/29 09:12:28;;;;;;;11.30;10.60;;;36.00;99.90;;;;;;4903120;29;20051;-91
2022/07/29 09:14:55;;;;;;;11.77;10.88;;;36.10;99.90;;;;;;4903180;29;20040;-91
2022/07/29 09:17:49;;;;;;;11.77;11.00;;;35.70;99.90;;;;;;4903142;29;20085;-90
2022/07/29 09:20:18;;;;;;;12.10;11.07;;;36.10;99.90;;;;;;4902849;29;20036;-91
2022/07/29 09:22:49;;;;;;;11.80;10.93;;;35.90;99.90;;;;;;4903164;29;20032;-90
2022/07/29 09:25:32;;;;;;;11.85;11.15;;;35.50;99.90;;;;;;4903022;29;20035;-91
2022/07/29 09:28:06;;;;;;;11.68;10.98;;;35.10;99.90;;;;;;4903194;29;20055;-89
2022/07/29 09:30:33;;;;;;;12.60;11.70;;;35.20;99.90;;;;;;4887724;29;20036;-92
2022/07/29 09:33:03;;;;;;;12.85;11.85;;;35.90;99.90;;;;;;4887143;29;20029;-91
2022/07/29 09:35:30;;;;;;;12.70;11.75;;;36.00;99.90;;;;;;4902867;29;20122;-93
2022/07/29 09:37:57;;;;;;;11.35;10.65;;;35.50;99.90;;;;;;4903183;29;20172;-93
2022/07/29 09:40:26;;;;;;;12.35;11.35;;;35.30;99.90;;;;;;4902764;29;20118;-90
2022/07/29 09:42:56;;;;;;;12.57;11.38;;;35.30;99.90;;;;;;4903673;29;20028;-93
2022/07/29 09:45:37;;;;;;;12.00;11.15;;;35.80;99.90;;;;;;4903156;29;20039;-91
2022/07/29 09:48:21;;;;;;;11.88;10.98;;;35.60;99.90;;;;;;4899729;29;20038;-92
2022/07/29 09:50:50;;;;;;;11.60;10.73;;;35.30;99.90;;;;;;4909258;29;20413;-92
2022/07/29 09:53:34;;;;;;;12.20;10.50;;;34.70;99.90;;;;;;4919038;29;20067;-91
2022/07/29 09:56:01;;;;;;;;;;;34.50;99.90;;;;;;4887184;29;20040;-91
2022/07/29 09:58:27;;;;;;;11.63;10.73;;;34.40;99.90;;;;;;4907256;29;19911;-91
2022/07/29 10:00:55;;;;;;;11.00;10.10;;;34.20;99.90;;;;;;4914204;29;20462;-92
2022/07/29 10:03:23;;;;;;;10.00;9.40;;;33.90;99.90;;;;;;4921320;29;20034;-93
2022/07/29 10:06:13;;;;;;;11.40;10.68;;;34.10;99.90;;;;;;4909518;29;20123;-92
2022/07/29 10:08:41;;;;;;;11.52;10.73;;;34.10;99.90;;;;;;4902402;29;20063;-91
2022/07/29 10:11:14;;;;;;;11.50;10.70;;;34.30;99.90;;;;;;4894126;29;20367;-92
2022/07/29 10:13:43;;;;;;;12.45;10.98;;;34.40;99.90;;;;;;4902014;29;20048;-93
2022/07/29 10:16:10;;;;;;;15.65;10.63;;;34.10;99.90;;;;;;4901568;29;20031;-93
2022/07/29 10:18:42;;;;;;;11.02;10.25;;;33.90;99.90;;;;;;4887139;29;20040;-93
2022/07/29 10:21:09;;;;;;;11.23;10.23;;;34.10;99.90;;;;;;4900246;29;20119;-93
2022/07/29 10:23:36;;;;;;;12.73;11.15;;;34.60;99.90;;;;;;4909669;29;20029;-91
2022/07/29 10:26:04;;;;;;;11.50;10.45;;;34.60;99.90;;;;;;4901166;29;20035;-92
2022/07/29 10:28:34;;;;;;;11.68;10.88;;;34.50;99.90;;;;;;4899362;23;20123;-91
2022/07/29 10:31:09;;;;;;;11.98;11.07;;;34.70;99.90;;;;;;4920016;29;20111;-90
2022/07/29 10:34:14;;;;;;;11.52;10.82;;;34.60;99.90;;;;;;4902829;29;20123;-92
2022/07/29 10:37:08;;;;;;;12.27;11.43;;;34.50;99.90;;;;;;4901371;29;20032;-92
2022/07/29 10:39:50;;;;;;;;;;;34.40;99.90;;;;;;4909810;29;20119;-92
2022/07/29 10:42:24;;;;;;;11.73;10.93;;;34.70;99.90;;;;;;4894161;29;19911;-92
2022/07/29 10:44:51;;;;;;;;;;;34.70;99.90;;;;;;4899020;29;20124;-92
2022/07/29 10:47:26;;;;;;;12.18;11.20;;;34.30;99.90;;;;;;4898308;29;20009;-92
2022/07/29 10:49:59;;;;;;;12.23;11.52;;;34.30;99.90;;;;;;4898121;29;20033;-92
2022/07/29 10:52:52;;;;;;;12.25;11.45;;;34.60;99.90;;;;;;4898253;29;20039;-94
2022/07/29 10:55:48;;;;;;;12.30;11.52;;;34.50;99.90;;;;;;4898367;29;20041;-93
2022/07/29 10:58:20;;;;;;;12.15;11.35;;;34.60;99.90;;;;;;4898443;29;20043;-91
2022/07/29 11:00:52;;;;;;;13.00;11.88;;;34.80;99.90;;;;;;4867990;29;20036;-91
2022/07/29 11:03:44;;;;;;;12.32;11.73;;;34.80;99.90;;;;;;4882793;29;20508;-91
2022/07/29 11:06:10;;;;;;;12.63;11.73;;;34.80;99.90;;;;;;4863450;29;20128;-92
2022/07/29 11:08:41;;;;;;;13.00;12.13;;;34.60;99.90;;;;;;4898386;29;20029;-92
2022/07/29 11:11:20;;;;;;;12.55;11.77;;;34.60;99.90;;;;;;4898047;29;20049;-91
2022/07/29 11:13:48;;;;;;;13.35;12.10;;;34.80;99.90;;;;;;4899180;29;20566;-94
2022/07/29 11:16:21;;;;;;;12.80;11.90;;;35.20;99.90;;;;;;4898789;29;20563;-94
2022/07/29 11:19:10;;;;;;;12.75;11.93;;;35.20;99.90;;;;;;4884612;29;20495;-94
2022/07/29 11:22:04;;;;;;;13.15;12.25;;;35.10;99.90;;;;;;4901741;29;20036;-94
2022/07/29 11:24:34;;;;;;;12.55;11.75;;;35.20;99.90;;;;;;4901565;29;20043;-94
2022/07/29 11:27:25;;;;;;;12.48;11.57;;;35.10;99.90;;;;;;4901334;29;20088;-94
2022/07/29 11:29:55;;;;;;;13.57;12.50;;;34.90;99.90;;;;;;4896963;29;20049;-92
2022/07/29 11:32:24;;;;;;;13.43;12.40;;;34.80;99.90;;;;;;4881481;29;20037;-93
2022/07/29 11:35:11;;;;;;;13.65;12.48;;;35.10;99.90;;;;;;4881440;29;20071;-93
2022/07/29 11:37:38;;;;;;;13.30;12.23;;;35.00;99.90;;;;;;4867471;29;20060;-92
2022/07/29 11:40:04;;;;;;;12.52;11.60;;;35.00;99.90;;;;;;4879701;29;20033;-93
2022/07/29 11:42:38;;;;;;;13.57;12.48;;;35.10;99.90;;;;;;4879350;29;20423;-93
2022/07/29 11:45:16;;;;;;;12.90;12.00;;;35.20;99.90;;;;;;4895163;29;20045;-93
2022/07/29 11:47:57;;;;;;;12.20;11.40;;;35.40;99.90;;;;;;4881630;29;20044;-93
2022/07/29 11:50:33;;;;;;;12.98;12.18;;;35.20;99.90;;;;;;4883128;29;20041;-92
2022/07/29 11:53:01;;;;;;;13.35;12.15;;;35.10;99.90;;;;;;4883154;29;20173;-94
2022/07/29 11:55:28;;;;;;;12.90;12.10;;;35.10;99.90;;;;;;4882921;29;20079;-93
2022/07/29 11:57:59;;;;;;;13.65;12.77;;;34.80;99.90;;;;;;4882970;29;20045;-92
2022/07/29 12:00:39;;;;;;;13.50;12.52;;;35.00;99.90;;;;;;4883749;29;20526;-92
2022/07/29 12:03:10;;;;;;;15.02;13.68;;;35.20;99.90;;;;;;4883089;29;20088;-93
2022/07/29 12:05:41;;;;;;;13.48;12.27;;;35.00;99.90;;;;;;4882911;29;20037;-92
2022/07/29 12:08:12;;;;;;;13.20;12.40;;;34.90;99.90;;;;;;4883104;29;20116;-93
2022/07/29 12:10:40;;;;;;;13.40;12.38;;;34.70;99.90;;;;;;4882571;29;20036;-91
2022/07/29 12:13:07;;;;;;;12.98;12.05;;;34.90;99.90;;;;;;4882890;29;20173;-92
2022/07/29 12:15:34;;;;;;;13.13;12.20;;;34.80;99.90;;;;;;4882520;29;20065;-92
2022/07/29 12:18:11;;;;;;;13.77;12.90;;;35.00;99.90;;;;;;4882629;29;20025;-90
2022/07/29 12:20:37;;;;;;;13.55;12.75;;;35.10;99.90;;;;;;4882503;29;20129;-90
2022/07/29 12:23:14;;;;;;;13.82;12.68;;;35.20;99.90;;;;;;4882404;29;20052;-90
2022/07/29 12:25:43;;;;;;;13.80;12.60;;;35.00;99.90;;;;;;4882493;29;20036;-91
2022/07/29 12:28:18;;;;;;;13.57;12.60;;;34.90;99.90;;;;;;4882305;29;20025;-92
2022/07/29 12:30:51;;;;;;;13.43;12.63;;;34.90;99.90;;;;;;4882302;29;20057;-91
2022/07/29 12:33:27;;;;;;;14.30;13.20;;;34.80;99.90;;;;;;4882130;29;20033;-94
2022/07/29 12:36:00;;;;;;;13.50;12.60;;;35.10;99.90;;;;;;4897305;29;20036;-91
2022/07/29 12:38:27;;;;;;;13.87;13.07;;;35.00;99.90;;;;;;4900876;29;20036;-91
2022/07/29 13:53:39;;;;;;;12.73;11.98;;;34.50;99.90;;;;;;5603985;23;20094;-91
2022/07/29 13:56:08;;;;;;;13.10;12.20;;;34.60;99.90;;;;;;4907120;29;20032;-90
2022/07/29 13:58:34;;;;;;;12.32;11.68;;;34.70;99.90;;;;;;4901608;29;20027;-92
2022/07/29 14:01:01;;;;;;;12.75;11.90;;;34.40;99.90;;;;;;4921747;29;20035;-91
2022/07/29 14:03:27;;;;;;;12.70;11.90;;;34.30;99.90;;;;;;4905805;29;20031;-92
2022/07/29 14:05:55;;;;;;;12.80;11.93;;;34.20;99.90;;;;;;4905597;29;20028;-90
2022/07/29 14:08:22;;;;;;;13.02;12.13;;;34.50;99.90;;;;;;4905489;29;20023;-90